Newark, New Jersey
Current Conditions -  °F | °C
As of 10:51 AM on Friday 24 Oct 2014 (Local Time) from KEWR Reporting Station
Broken Clouds Broken Clouds  
Wind Chill: 57°   Ceiling: 4100
Heat Index: 57°   Visibility: 10mi
Dew Point: 43°   Wind: 15mph
Humidity: 59%   Direction: 320°NW
Pressure: 29.83"   Gusts: 23mph
Location:  40.73°N, 74.17°W
Report Text: KEWR 241451Z 32013G20KT 10SM SCT033 BKN041 BKN150 14/06 A2983 RMK AO2 SLP100 T01390061 53000
Loading
Personal Weather Stations






























Interactive Weather Map
Tropical Storm Tracking
New forecast layout! Learn more

10-Day Weather Forecast

Advertisements
Track Severe Weather on mobile